createdAt,value
2018-01-17T00:01:04.001Z,99138.27
2018-01-17T00:03:31.582Z,99134.00
2018-01-17T00:05:59.165Z,99128.52
2018-01-17T00:08:26.806Z,99130.44
2018-01-17T00:10:54.401Z,99134.09
2018-01-17T00:13:22.050Z,99130.06
2018-01-17T00:15:49.723Z,99125.22
2018-01-17T00:18:17.390Z,99126.03
2018-01-17T00:20:44.978Z,99109.92
2018-01-17T00:23:12.600Z,99099.33
2018-01-17T00:25:40.186Z,99091.14
2018-01-17T00:28:07.807Z,99095.47
2018-01-17T00:30:35.412Z,99101.17
2018-01-17T00:33:02.984Z,99101.17
2018-01-17T00:35:30.556Z,99091.94
2018-01-17T00:37:58.168Z,99094.78
2018-01-17T00:40:25.752Z,99097.71
2018-01-17T00:42:53.339Z,99089.10
2018-01-17T00:45:20.951Z,99083.12
2018-01-17T00:47:48.578Z,99088.55
2018-01-17T00:50:17.048Z,99082.19
2018-01-17T00:52:44.659Z,99076.52
2018-01-17T00:55:12.232Z,99063.63
2018-01-17T00:57:39.811Z,99068.52
2018-01-17T01:00:07.430Z,99050.22
2018-01-17T01:02:35.087Z,99044.06
2018-01-17T01:05:02.681Z,99044.92
2018-01-17T01:07:30.296Z,99052.39
2018-01-17T01:09:57.878Z,99042.13
2018-01-17T01:12:25.459Z,99042.63
2018-01-17T01:14:53.084Z,99039.80
2018-01-17T01:17:20.666Z,99033.19
2018-01-17T01:19:48.228Z,99027.41
2018-01-17T01:22:15.837Z,99019.24
2018-01-17T01:24:43.420Z,99013.78
2018-01-17T01:27:10.982Z,99004.05
2018-01-17T01:29:38.596Z,98998.97
2018-01-17T01:32:06.174Z,98987.08
2018-01-17T01:34:33.738Z,98986.80
2018-01-17T01:37:01.347Z,98985.61
2018-01-17T01:39:28.912Z,98980.80
2018-01-17T01:41:56.551Z,98983.79
2018-01-17T01:44:24.153Z,98976.77
2018-01-17T01:46:51.736Z,98976.64
2018-01-17T01:49:19.307Z,98981.32
2018-01-17T01:51:46.921Z,98971.28
2018-01-17T01:54:14.486Z,98970.55
2018-01-17T01:56:42.053Z,98965.24
2018-01-17T01:59:09.663Z,98959.30
2018-01-17T02:01:37.251Z,98947.00
2018-01-17T02:04:04.829Z,98961.97
2018-01-17T02:06:32.468Z,98962.81
2018-01-17T02:09:00.058Z,98957.65
2018-01-17T02:11:27.632Z,98958.19
2018-01-17T02:13:55.234Z,98959.41
2018-01-17T02:16:22.826Z,98956.13
2018-01-17T02:18:50.405Z,98950.11
2018-01-17T02:21:18.030Z,98946.98
2018-01-17T02:23:45.612Z,98941.00
2018-01-17T02:26:13.197Z,98938.33
2018-01-17T02:28:40.826Z,98933.13
2018-01-17T02:31:13.924Z,98937.05
2018-01-17T02:33:41.526Z,98922.56
2018-01-17T02:36:09.162Z,98915.11
2018-01-17T02:38:36.724Z,98922.44
2018-01-17T02:41:04.470Z,98905.07
2018-01-17T02:43:32.065Z,98891.52
2018-01-17T02:45:59.639Z,98891.88
2018-01-17T02:48:27.253Z,98883.27
2018-01-17T02:50:54.825Z,98873.51
2018-01-17T02:53:22.457Z,98874.98
2018-01-17T02:55:50.066Z,98869.77
2018-01-17T02:58:17.691Z,98865.39
2018-01-17T03:00:45.268Z,98863.01
2018-01-17T03:03:12.887Z,98865.06
2018-01-17T03:05:40.496Z,98862.84
2018-01-17T03:08:08.081Z,98861.91
2018-01-17T03:10:35.710Z,98854.39
2018-01-17T03:13:03.267Z,98838.12
2018-01-17T03:15:30.826Z,98847.31
2018-01-17T03:17:58.465Z,98843.08
2018-01-17T03:20:26.041Z,98838.98
2018-01-17T03:22:53.615Z,98843.78
2018-01-17T03:25:21.239Z,98844.79
2018-01-17T03:27:48.826Z,98841.63
2018-01-17T03:30:16.409Z,98834.86
2018-01-17T03:32:44.028Z,98834.84
2018-01-17T03:35:11.617Z,98832.14
2018-01-17T03:37:39.199Z,98833.68
2018-01-17T03:40:06.816Z,98833.27
2018-01-17T03:42:34.405Z,98843.12
2018-01-17T03:45:01.985Z,98839.98
2018-01-17T03:47:29.592Z,98832.64
2018-01-17T03:49:57.181Z,98834.20
2018-01-17T03:52:24.768Z,98836.13
2018-01-17T03:54:52.403Z,98831.53
2018-01-17T03:57:20.159Z,98825.46
2018-01-17T03:59:47.728Z,98821.61
2018-01-17T04:02:15.362Z,98823.09
2018-01-17T04:04:42.943Z,98828.11
2018-01-17T04:07:10.506Z,98822.13
2018-01-17T04:09:38.125Z,98826.87
2018-01-17T04:12:05.710Z,98827.77
2018-01-17T04:14:33.304Z,98820.48
2018-01-17T04:17:00.941Z,98820.97
2018-01-17T04:19:28.500Z,98812.42
2018-01-17T04:21:56.070Z,98812.66
2018-01-17T04:24:23.662Z,98808.14
2018-01-17T04:26:51.264Z,98809.45
2018-01-17T04:29:18.843Z,98804.49
2018-01-17T04:31:46.513Z,98807.59
2018-01-17T04:34:14.105Z,98804.83
2018-01-17T04:36:41.696Z,98800.65
2018-01-17T04:39:09.316Z,98798.52
2018-01-17T04:41:36.893Z,98797.86
2018-01-17T04:44:04.490Z,98792.13
2018-01-17T04:46:32.106Z,98782.34
2018-01-17T04:48:59.678Z,98789.11
2018-01-17T04:51:27.317Z,98795.16
2018-01-17T04:53:54.924Z,98786.61
2018-01-17T04:56:22.622Z,98776.23
2018-01-17T04:58:50.195Z,98779.19
2018-01-17T05:01:17.921Z,98785.84
2018-01-17T05:03:45.509Z,98791.27
2018-01-17T05:06:13.088Z,98789.79
2018-01-17T05:08:40.715Z,98789.05
2018-01-17T05:11:08.282Z,98779.72
2018-01-17T05:13:35.829Z,98779.73
2018-01-17T05:16:03.443Z,98781.86
2018-01-17T05:18:31.162Z,98778.50
2018-01-17T05:20:58.746Z,98783.66
2018-01-17T05:23:26.375Z,98777.36
2018-01-17T05:25:53.987Z,98775.05
2018-01-17T05:28:21.554Z,98762.74
2018-01-17T05:30:49.158Z,98786.69
2018-01-17T05:33:16.748Z,98775.63
2018-01-17T05:35:44.342Z,98777.95
2018-01-17T05:38:11.952Z,98775.56
2018-01-17T05:40:39.527Z,98772.47
2018-01-17T05:43:07.116Z,98769.38
2018-01-17T05:45:34.748Z,98763.70
2018-01-17T05:48:02.335Z,98761.84
2018-01-17T05:50:29.907Z,98765.75
2018-01-17T05:52:57.534Z,98756.20
2018-01-17T05:55:25.104Z,98746.23
2018-01-17T05:57:52.769Z,98742.56
2018-01-17T06:00:20.429Z,98747.91
2018-01-17T06:02:48.003Z,98745.69
2018-01-17T06:05:15.591Z,98751.13
2018-01-17T06:07:43.197Z,98786.66
2018-01-17T06:10:10.767Z,98759.31
2018-01-17T06:12:38.354Z,98758.00
2018-01-17T06:15:05.967Z,98741.09
2018-01-17T06:17:33.552Z,98738.54
2018-01-17T06:20:01.137Z,98745.18
2018-01-17T06:22:28.767Z,98747.36
2018-01-17T06:24:56.355Z,98747.00
2018-01-17T06:27:23.945Z,98741.73
2018-01-17T06:29:51.560Z,98735.46
2018-01-17T06:32:19.193Z,98738.38
2018-01-17T06:34:46.773Z,98743.85
2018-01-17T06:37:14.405Z,98743.66
2018-01-17T06:39:41.977Z,98733.90
2018-01-17T06:42:09.544Z,98727.45
2018-01-17T06:44:37.151Z,98725.62
2018-01-17T06:47:04.731Z,98731.28
2018-01-17T06:49:32.313Z,98727.56
2018-01-17T06:51:59.992Z,98727.81
2018-01-17T06:54:27.601Z,98723.30
2018-01-17T06:56:55.193Z,98721.63
2018-01-17T06:59:22.800Z,98723.23
2018-01-17T07:01:50.389Z,98718.61
2018-01-17T07:04:17.964Z,98736.30
2018-01-17T07:06:45.601Z,98731.02
2018-01-17T07:09:13.170Z,98732.09
2018-01-17T07:11:40.750Z,98729.73
2018-01-17T07:14:08.426Z,98723.42
2018-01-17T07:16:36.004Z,98725.88
2018-01-17T07:19:03.575Z,98717.67
2018-01-17T07:21:31.191Z,98717.41
2018-01-17T07:23:58.781Z,98709.25
2018-01-17T07:26:26.361Z,98706.66
2018-01-17T07:28:53.963Z,98696.41
2018-01-17T07:31:21.548Z,98693.98
2018-01-17T07:33:49.132Z,98692.13
2018-01-17T07:36:16.778Z,98689.53
2018-01-17T07:38:44.366Z,98683.69
2018-01-17T07:41:11.950Z,98686.11
2018-01-17T07:43:39.572Z,98683.36
2018-01-17T07:46:07.144Z,98679.32
2018-01-17T07:48:34.734Z,98672.48
2018-01-17T07:51:02.365Z,98672.28
2018-01-17T07:53:29.969Z,98669.30
2018-01-17T07:55:57.581Z,98669.00
2018-01-17T07:58:25.191Z,98671.28
2018-01-17T08:00:52.763Z,98671.83
2018-01-17T08:03:20.337Z,98665.73
2018-01-17T08:05:47.947Z,98656.78
2018-01-17T08:08:15.531Z,98656.73
2018-01-17T08:10:43.103Z,98650.84
2018-01-17T08:13:10.716Z,98649.59
2018-01-17T08:15:38.278Z,98651.97
2018-01-17T08:18:05.860Z,98648.84
2018-01-17T08:20:33.503Z,98639.97
2018-01-17T08:23:01.101Z,98640.50
2018-01-17T08:25:28.817Z,98631.14
2018-01-17T08:27:56.418Z,98621.68
2018-01-17T08:30:24.004Z,98611.50
2018-01-17T08:32:51.595Z,98614.47
2018-01-17T08:35:19.207Z,98606.17
2018-01-17T08:37:46.784Z,98602.70
2018-01-17T08:40:14.373Z,98597.31
2018-01-17T08:42:41.997Z,98593.08
2018-01-17T08:45:09.579Z,98583.80
2018-01-17T08:47:37.172Z,98572.81
2018-01-17T08:50:04.796Z,98564.53
2018-01-17T08:52:32.365Z,98555.77
2018-01-17T08:54:59.957Z,98549.70
2018-01-17T08:57:27.584Z,98539.41
2018-01-17T08:59:55.176Z,98534.06
2018-01-17T09:02:22.756Z,98516.28
2018-01-17T09:04:50.365Z,98518.84
2018-01-17T09:07:17.960Z,98507.94
2018-01-17T09:09:45.556Z,98489.30
2018-01-17T09:12:13.228Z,98474.91
2018-01-17T09:14:40.819Z,98460.39
2018-01-17T09:17:08.434Z,98451.16
2018-01-17T09:19:36.061Z,98441.03
2018-01-17T09:22:03.657Z,98430.61
2018-01-17T09:24:31.227Z,98424.77
2018-01-17T09:26:58.908Z,98408.31
2018-01-17T09:29:26.488Z,98396.81
2018-01-17T09:31:54.072Z,98386.34
2018-01-17T09:34:21.691Z,98382.56
2018-01-17T09:36:49.280Z,98376.13
2018-01-17T09:39:16.867Z,98358.72
2018-01-17T09:41:44.491Z,98345.46
2018-01-17T09:44:12.084Z,98340.13
2018-01-17T09:46:39.699Z,98331.08
2018-01-17T09:49:07.466Z,98327.56
2018-01-17T09:51:35.053Z,98314.95
2018-01-17T09:54:02.639Z,98304.98
2018-01-17T09:56:30.365Z,98299.63
2018-01-17T09:58:58.109Z,98289.42
2018-01-17T10:01:25.724Z,98279.41
2018-01-17T10:03:53.406Z,98266.23
2018-01-17T10:06:21.021Z,98255.02
2018-01-17T10:08:48.611Z,98249.45
2018-01-17T10:11:16.216Z,98226.06
2018-01-17T10:13:43.840Z,98211.00
2018-01-17T10:16:11.444Z,98200.48
2018-01-17T10:18:39.045Z,98190.23
2018-01-17T10:21:06.709Z,98182.13
2018-01-17T10:23:34.302Z,98176.25
2018-01-17T10:26:01.917Z,98179.68
2018-01-17T10:28:29.544Z,98168.27
2018-01-17T10:30:57.125Z,98152.52
2018-01-17T10:33:24.720Z,98151.83
2018-01-17T10:35:52.350Z,98145.15
2018-01-17T10:38:19.929Z,98122.75
2018-01-17T10:40:47.513Z,98105.45
2018-01-17T10:43:15.145Z,98085.33
2018-01-17T10:45:42.718Z,98072.72
2018-01-17T10:48:10.308Z,98062.73
2018-01-17T10:50:37.940Z,98056.30
2018-01-17T10:53:05.524Z,98041.14
2018-01-17T10:55:33.100Z,98027.59
2018-01-17T10:58:00.724Z,98015.20
2018-01-17T11:00:33.807Z,98012.89
2018-01-17T11:03:01.420Z,98002.27
2018-01-17T11:05:29.009Z,97997.87
2018-01-17T11:07:56.593Z,97982.75
2018-01-17T11:10:24.223Z,97974.52
2018-01-17T11:12:51.813Z,97962.71
2018-01-17T11:15:19.402Z,97957.69
2018-01-17T11:17:47.044Z,97952.75
2018-01-17T11:20:14.639Z,97942.17
2018-01-17T11:22:42.229Z,97938.50
2018-01-17T11:25:09.859Z,97919.56
2018-01-17T11:27:37.431Z,97914.62
2018-01-17T11:30:05.024Z,97907.77
2018-01-17T11:32:32.711Z,97903.47
2018-01-17T11:35:00.292Z,97899.34
2018-01-17T11:37:27.856Z,97882.89
2018-01-17T11:39:55.472Z,97870.68
2018-01-17T11:42:23.038Z,97844.73
2018-01-17T11:44:50.609Z,97845.00
2018-01-17T11:47:18.224Z,97825.38
2018-01-17T11:49:45.805Z,97811.30
2018-01-17T11:52:13.372Z,97822.91
2018-01-17T11:54:41.027Z,97807.60
2018-01-17T11:57:08.617Z,97801.53
2018-01-17T11:59:36.201Z,97810.30
2018-01-17T12:02:03.805Z,97806.55
2018-01-17T12:04:31.355Z,97805.29
2018-01-17T12:06:58.908Z,97797.59
2018-01-17T12:09:26.517Z,97792.66
2018-01-17T12:11:54.101Z,97793.19
2018-01-17T12:14:21.691Z,97782.75
2018-01-17T12:16:49.309Z,97780.34
2018-01-17T12:19:16.893Z,97794.02
2018-01-17T12:21:44.477Z,97789.82
2018-01-17T12:24:12.181Z,97784.34
2018-01-17T12:26:39.766Z,97798.84
2018-01-17T12:29:07.341Z,97795.78
2018-01-17T12:31:34.953Z,97802.44
2018-01-17T12:34:02.523Z,97809.20
2018-01-17T12:36:30.101Z,97800.33
2018-01-17T12:38:57.699Z,97795.83
2018-01-17T12:41:25.278Z,97799.15
2018-01-17T12:43:52.850Z,97789.23
2018-01-17T12:46:20.458Z,97786.38
2018-01-17T12:48:48.033Z,97790.42
2018-01-17T12:51:15.608Z,97797.56
2018-01-17T12:53:43.247Z,97795.58
2018-01-17T12:56:10.813Z,97789.50
2018-01-17T12:58:38.380Z,97795.68
2018-01-17T13:01:06.002Z,97787.20
2018-01-17T13:03:33.569Z,97777.52
2018-01-17T13:06:01.147Z,97778.26
2018-01-17T13:08:28.754Z,97783.00
2018-01-17T13:10:56.320Z,97776.61
2018-01-17T13:13:23.893Z,97756.55
2018-01-17T13:15:51.523Z,97751.86
2018-01-17T13:18:19.104Z,97751.09
2018-01-17T13:20:46.682Z,97740.50
2018-01-17T13:23:14.309Z,97748.59
2018-01-17T13:25:41.902Z,97753.88
2018-01-17T13:28:09.440Z,97715.02
2018-01-17T13:30:37.021Z,97715.72
2018-01-17T13:33:04.591Z,97723.61
2018-01-17T13:35:32.224Z,97705.00
2018-01-17T13:37:59.905Z,97714.77
2018-01-17T13:40:27.529Z,97703.03
2018-01-17T13:42:55.118Z,97697.40
2018-01-17T13:45:22.806Z,97701.14
2018-01-17T13:47:50.408Z,97693.70
2018-01-17T13:50:17.974Z,97691.58
2018-01-17T13:52:45.577Z,97680.02
2018-01-17T13:55:13.142Z,97684.11
2018-01-17T13:57:40.723Z,97671.61
2018-01-17T14:00:08.383Z,97669.52
2018-01-17T14:02:35.968Z,97666.91
2018-01-17T14:05:03.724Z,97670.06
2018-01-17T14:07:31.323Z,97656.69
2018-01-17T14:09:58.977Z,97648.81
2018-01-17T14:12:26.548Z,97645.53
2018-01-17T14:14:54.152Z,97650.73
2018-01-17T14:17:21.736Z,97647.76
2018-01-17T14:19:49.336Z,97637.26
2018-01-17T14:22:16.978Z,97611.42
2018-01-17T14:24:44.554Z,97624.36
2018-01-17T14:27:12.129Z,97612.38
2018-01-17T14:29:39.734Z,97622.66
2018-01-17T14:32:07.317Z,97617.47
2018-01-17T14:34:34.901Z,97619.77
2018-01-17T14:37:02.510Z,97621.22
2018-01-17T14:39:30.716Z,97618.42
2018-01-17T14:41:58.300Z,97610.83
2018-01-17T14:44:25.938Z,97612.53
2018-01-17T14:46:53.511Z,97598.34
2018-01-17T14:49:21.078Z,97598.55
2018-01-17T14:51:48.676Z,97593.95
2018-01-17T14:54:16.243Z,97590.06
2018-01-17T14:56:43.790Z,97586.03
2018-01-17T14:59:11.386Z,97600.21
2018-01-17T15:01:38.950Z,97582.32
2018-01-17T15:04:06.513Z,97572.77
2018-01-17T15:06:34.118Z,97579.25
2018-01-17T15:09:01.673Z,97565.09
2018-01-17T15:11:29.238Z,97577.91
2018-01-17T15:13:56.826Z,97558.98
2018-01-17T15:16:27.229Z,97558.73
2018-01-17T15:18:54.968Z,97554.22
2018-01-17T15:21:22.606Z,97551.78
2018-01-17T15:23:50.218Z,97550.75
2018-01-17T15:26:17.842Z,97553.63
2018-01-17T15:28:45.487Z,97535.41
2018-01-17T15:31:13.194Z,97529.75
2018-01-17T15:33:40.769Z,97531.98
2018-01-17T15:36:08.334Z,97525.75
2018-01-17T15:38:35.931Z,97527.52
2018-01-17T15:41:03.499Z,97524.31
2018-01-17T15:43:31.065Z,97534.69
2018-01-17T15:45:58.689Z,97536.14
2018-01-17T15:48:26.284Z,97525.76
2018-01-17T15:50:53.855Z,97527.20
2018-01-17T15:53:21.464Z,97521.44
2018-01-17T15:55:49.014Z,97503.66
2018-01-17T15:58:16.572Z,97530.04
2018-01-17T16:00:44.165Z,97526.73
2018-01-17T16:03:11.723Z,97527.84
2018-01-17T16:05:39.396Z,97520.50
2018-01-17T16:08:07.017Z,97521.80
2018-01-17T16:10:34.641Z,97523.13
2018-01-17T16:13:02.237Z,97514.41
2018-01-17T16:15:29.878Z,97511.33
2018-01-17T16:17:57.450Z,97512.16
2018-01-17T16:20:25.057Z,97520.25
2018-01-17T16:22:52.647Z,97500.58
2018-01-17T16:25:20.228Z,97506.47
2018-01-17T16:27:47.809Z,97506.89
2018-01-17T16:30:15.410Z,97516.61
2018-01-17T16:32:42.967Z,97501.47
2018-01-17T16:35:10.530Z,97489.66
2018-01-17T16:37:38.254Z,97487.52
2018-01-17T16:40:05.820Z,97472.84
2018-01-17T16:42:33.379Z,97472.39
2018-01-17T16:45:01.001Z,97455.85
2018-01-17T16:47:28.572Z,97452.56
2018-01-17T16:49:56.160Z,97449.51
2018-01-17T16:52:23.770Z,97440.55
2018-01-17T16:54:51.333Z,97431.58
2018-01-17T16:57:18.958Z,97443.84
2018-01-17T16:59:46.556Z,97441.81
2018-01-17T17:02:14.172Z,97444.25
2018-01-17T17:04:41.733Z,97419.83
2018-01-17T17:07:09.328Z,97415.28
2018-01-17T17:09:36.912Z,97421.41
2018-01-17T17:12:04.499Z,97427.62
2018-01-17T17:14:32.089Z,97408.08
2018-01-17T17:16:59.664Z,97413.63
2018-01-17T17:19:27.226Z,97389.79
2018-01-17T17:21:54.827Z,97383.23
2018-01-17T17:24:22.405Z,97369.81
2018-01-17T17:26:49.997Z,97358.67
2018-01-17T17:29:17.604Z,97363.50
2018-01-17T17:31:45.200Z,97355.81
2018-01-17T17:34:12.826Z,97361.99
2018-01-17T17:36:40.425Z,97364.25
2018-01-17T17:39:07.994Z,97352.17
2018-01-17T17:41:35.573Z,97350.92
2018-01-17T17:44:03.223Z,97346.42
2018-01-17T17:46:30.852Z,97351.50
2018-01-17T17:48:58.543Z,97348.02
2018-01-17T17:51:26.161Z,97346.66
2018-01-17T17:53:53.747Z,97339.93
2018-01-17T17:56:21.346Z,97344.20
2018-01-17T17:58:49.002Z,97332.66
2018-01-17T18:01:16.589Z,97330.47
2018-01-17T18:03:44.207Z,97315.88
2018-01-17T18:06:11.840Z,97315.24
2018-01-17T18:08:39.444Z,97322.09
2018-01-17T18:11:07.010Z,97301.38
2018-01-17T18:13:34.643Z,97278.27
2018-01-17T18:16:02.210Z,97287.51
2018-01-17T18:18:29.828Z,97281.34
2018-01-17T18:20:57.696Z,97274.03
2018-01-17T18:23:25.269Z,97282.18
2018-01-17T18:25:52.816Z,97262.00
2018-01-17T18:28:20.423Z,97284.57
2018-01-17T18:30:47.983Z,97267.22
2018-01-17T18:33:15.559Z,97276.34
2018-01-17T18:35:43.166Z,97274.45
2018-01-17T18:38:10.779Z,97270.37
2018-01-17T18:40:38.340Z,97278.70
2018-01-17T18:43:05.921Z,97258.52
2018-01-17T18:45:33.487Z,97258.26
2018-01-17T18:48:01.043Z,97266.52
2018-01-17T18:50:28.656Z,97281.97
2018-01-17T18:52:56.202Z,97291.09
2018-01-17T18:55:23.795Z,97302.44
2018-01-17T18:57:51.416Z,97305.11
2018-01-17T19:00:18.997Z,97292.72
2018-01-17T19:02:46.564Z,97289.31
2018-01-17T19:05:14.194Z,97286.09
2018-01-17T19:07:41.746Z,97300.48
2018-01-17T19:10:09.322Z,97316.55
2018-01-17T19:12:36.934Z,97332.32
2018-01-17T19:15:04.538Z,97385.02
2018-01-17T19:17:32.163Z,97422.67
2018-01-17T19:19:59.758Z,97430.48
2018-01-17T19:22:27.319Z,97423.12
2018-01-17T19:24:54.889Z,97442.22
2018-01-17T19:27:22.473Z,97441.55
2018-01-17T19:29:50.045Z,97437.57
2018-01-17T19:32:17.612Z,97438.74
2018-01-17T19:34:45.282Z,97445.38
2018-01-17T19:37:12.856Z,97453.91
2018-01-17T19:39:40.447Z,97461.33
2018-01-17T19:42:08.037Z,97478.48
2018-01-17T19:44:35.595Z,97492.21
2018-01-17T19:47:03.145Z,97495.17
2018-01-17T19:49:30.738Z,97505.43
2018-01-17T19:51:58.316Z,97513.97
2018-01-17T19:54:25.894Z,97525.34
2018-01-17T19:56:53.513Z,97548.55
2018-01-17T19:59:21.062Z,97544.54
2018-01-17T20:01:48.741Z,97547.30
2018-01-17T20:04:16.479Z,97572.81
2018-01-17T20:06:44.091Z,97574.34
2018-01-17T20:09:11.710Z,97575.02
2018-01-17T20:11:39.430Z,97589.72
2018-01-17T20:14:06.989Z,97591.05
2018-01-17T20:16:35.472Z,97588.80
2018-01-17T20:19:03.059Z,97568.95
2018-01-17T20:21:30.643Z,97569.05
2018-01-17T20:23:58.201Z,97567.17
2018-01-17T20:26:25.802Z,97577.84
2018-01-17T20:28:53.375Z,97582.51
2018-01-17T20:31:20.965Z,97579.77
2018-01-17T20:33:48.563Z,97611.61
2018-01-17T20:36:16.179Z,97619.67
2018-01-17T20:38:43.794Z,97619.18
2018-01-17T20:41:11.406Z,97628.16
2018-01-17T20:43:38.976Z,97631.63
2018-01-17T20:46:06.552Z,97647.36
2018-01-17T20:48:34.164Z,97654.28
2018-01-17T20:51:01.760Z,97655.07
2018-01-17T20:53:29.330Z,97652.31
2018-01-17T20:55:57.043Z,97657.26
2018-01-17T20:58:24.638Z,97664.80
2018-01-17T21:00:52.196Z,97682.64
2018-01-17T21:03:19.887Z,97687.66
2018-01-17T21:05:47.467Z,97692.17
2018-01-17T21:08:15.037Z,97687.57
2018-01-17T21:10:42.738Z,97693.20
2018-01-17T21:13:10.316Z,97702.64
2018-01-17T21:15:37.888Z,97704.66
2018-01-17T21:18:05.513Z,97706.75
2018-01-17T21:20:33.083Z,97709.53
2018-01-17T21:23:00.664Z,97711.48
2018-01-17T21:25:28.294Z,97710.23
2018-01-17T21:27:55.858Z,97707.80
2018-01-17T21:30:23.433Z,97701.50
2018-01-17T21:32:51.068Z,97707.33
2018-01-17T21:35:18.673Z,97703.83
2018-01-17T21:37:46.509Z,97706.41
2018-01-17T21:40:14.146Z,97704.91
2018-01-17T21:42:47.230Z,97703.02
2018-01-17T21:45:20.264Z,97703.63
2018-01-17T21:47:47.829Z,97707.57
2018-01-17T21:50:15.415Z,97712.89
2018-01-17T21:52:43.005Z,97715.02
2018-01-17T21:55:10.589Z,97714.98
2018-01-17T21:57:38.202Z,97712.04
2018-01-17T22:00:05.815Z,97724.03
2018-01-17T22:02:33.373Z,97730.91
2018-01-17T22:05:00.948Z,97729.06
2018-01-17T22:07:28.583Z,97731.08
2018-01-17T22:09:56.153Z,97720.29
2018-01-17T22:12:23.793Z,97711.88
2018-01-17T22:14:51.408Z,97722.14
2018-01-17T22:17:18.966Z,97723.30
2018-01-17T22:19:46.506Z,97717.11
2018-01-17T22:22:14.085Z,97711.39
2018-01-17T22:24:41.654Z,97707.13
2018-01-17T22:27:09.404Z,97714.73
2018-01-17T22:29:37.043Z,97723.17
2018-01-17T22:32:04.613Z,97720.69
2018-01-17T22:34:32.171Z,97722.30
2018-01-17T22:36:59.769Z,97731.38
2018-01-17T22:39:27.339Z,97729.63
2018-01-17T22:41:54.917Z,97729.13
2018-01-17T22:44:22.541Z,97736.34
2018-01-17T22:46:50.151Z,97737.70
2018-01-17T22:49:17.724Z,97743.09
2018-01-17T22:51:45.319Z,97746.27
2018-01-17T22:54:12.877Z,97737.83
2018-01-17T22:56:40.432Z,97735.13
2018-01-17T22:59:08.036Z,97737.26
2018-01-17T23:01:35.624Z,97735.97
2018-01-17T23:04:03.193Z,97736.61
2018-01-17T23:06:30.796Z,97736.98
2018-01-17T23:08:58.358Z,97732.30
2018-01-17T23:11:25.917Z,97737.89
2018-01-17T23:13:53.512Z,97731.42
2018-01-17T23:16:21.060Z,97727.55
2018-01-17T23:18:48.673Z,97725.67
2018-01-17T23:21:16.253Z,97729.13
2018-01-17T23:23:43.797Z,97729.98
2018-01-17T23:26:11.360Z,97727.61
2018-01-17T23:28:38.946Z,97740.65
2018-01-17T23:31:06.499Z,97739.64
2018-01-17T23:33:34.037Z,97752.03
2018-01-17T23:36:01.639Z,97751.91
2018-01-17T23:38:29.204Z,97760.69
2018-01-17T23:40:56.748Z,97765.19
2018-01-17T23:43:24.343Z,97764.39
2018-01-17T23:45:51.899Z,97768.45
2018-01-17T23:48:19.485Z,97776.27
2018-01-17T23:50:47.086Z,97781.17
2018-01-17T23:53:14.646Z,97787.65
2018-01-17T23:55:42.183Z,97774.30
2018-01-17T23:58:09.889Z,97779.44
